Lenox, MA (01240)

5:23 PM EST on February 10, 2016 (GMT -0500)
Richmond | | Change Station
CLOSE
Current Station
Personal Weather Station
Location: Richmond, MA
Elevation: 1371 ft
Nearby Weather Stations

Elev 1371 ft 42.35 °N, 73.34 °W | Updated 24 seconds ago

Snow
Snow
27.1 °F
Feels Like 27 °F
N
0.0
Wind Variable Wind from WSW

Today
High -- | Low -- °F
--% Chance of Precip.
Yesterday
High -- | Low -- °F
Precip. -- in
Pressure 29.56 in
Visibility 1.0 miles
Clouds
Windchill 27 °F
Dew Point 26 °F
Humidity 95%
Rainfall in
Snow Depth Not available.
6:56 AM 5:18 PM
Waxing Crescent, 7% visible
SPECI KPSF 102213Z AUTO 29012KT 1SM -SN BR VV020 M03/M05 A2956 RMK AO2 P0000 T10281050
Pressure 29.56 in
Visibility 1.0 miles
Clouds
Windchill 27 °F
Dew Point 26 °F
Humidity 95%
Rainfall in
Snow Depth Not available.
6:56 AM 5:18 PM
Waxing Crescent, 7% visible
SPECI KPSF 102213Z AUTO 29012KT 1SM -SN BR VV020 M03/M05 A2956 RMK AO2 P0000 T10281050

10-Day Weather Forecast

Almanac

Astronomy

Feb. 10, 2016 Rise Set
Actual Time
Civil Twilight
Nautical Twilight
Astronomical Twilight
Moon
Length of Visible Light
Length of Day
Tomorrow will be .
, % of the Moon is Illuminated

Today's Extremes

State Highs State Lows

Community

WunderPhotos

Upload Photos

1,891,952 photos uploaded!

WunderBlog® & News

Nearby

Air Quality

  Air Quality AQ Index Pollutant
Not available.

Snow Depth

Station Depth Elevation

Earthquake Activity

City Distance Mag. Time & Date
Minimum magnitude displayed is 2.5.

Coastal Water Temperatures

Place Temperature

Stations

Nearby Weather Stations

Station Location Temp. Windchill Dew Point Humidity Wind Precip. Elev Updated Type
                   

Watches & Warnings

There are currently no watches in effect.